createdAt,value
2022-09-28T00:01:17.804Z,15.82
2022-09-28T00:03:46.453Z,4.78
2022-09-28T00:06:15.989Z,4.35
2022-09-28T00:08:42.784Z,4.90
2022-09-28T00:11:13.758Z,4.60
2022-09-28T00:13:41.491Z,4.72
2022-09-28T00:16:14.140Z,4.25
2022-09-28T00:18:41.666Z,4.35
2022-09-28T00:21:15.406Z,4.57
2022-09-28T00:24:01.475Z,4.80
2022-09-28T00:26:30.380Z,4.95
2022-09-28T00:29:00.119Z,5.05
2022-09-28T00:31:35.884Z,4.78
2022-09-28T00:34:02.752Z,4.82
2022-09-28T00:36:31.050Z,4.75
2022-09-28T00:38:58.887Z,4.18
2022-09-28T00:41:27.823Z,4.60
2022-09-28T00:44:15.227Z,4.77
2022-09-28T00:46:41.978Z,4.50
2022-09-28T00:49:15.778Z,4.15
2022-09-28T00:51:44.567Z,4.05
2022-09-28T00:54:12.818Z,3.90
2022-09-28T00:56:45.926Z,4.30
2022-09-28T00:59:13.003Z,4.03
2022-09-28T01:01:39.621Z,3.83
2022-09-28T01:04:06.416Z,4.28
2022-09-28T01:06:35.803Z,3.95
2022-09-28T01:09:06.300Z,4.80
2022-09-28T01:11:35.272Z,3.38
2022-09-28T01:14:02.377Z,3.70
2022-09-28T01:16:38.131Z,3.90
2022-09-28T01:19:10.783Z,4.00
2022-09-28T01:21:51.700Z,3.67
2022-09-28T01:24:38.735Z,3.72
2022-09-28T01:27:11.326Z,4.60
2022-09-28T01:29:46.092Z,3.33
2022-09-28T01:32:38.068Z,3.22
2022-09-28T01:35:15.002Z,3.38
2022-09-28T01:37:52.725Z,3.28
2022-09-28T01:40:23.053Z,3.60
2022-09-28T01:42:55.025Z,4.28
2022-09-28T01:45:31.264Z,3.60
2022-09-28T01:48:02.433Z,3.42
2022-09-28T01:50:33.352Z,3.70
2022-09-28T01:53:21.599Z,3.75
2022-09-28T01:55:54.171Z,3.65
2022-09-28T01:58:30.285Z,4.00
2022-09-28T02:01:06.132Z,3.80
2022-09-28T02:03:42.971Z,3.70
2022-09-28T02:06:16.668Z,3.83
2022-09-28T02:08:56.570Z,3.60
2022-09-28T02:13:58.923Z,3.92
2022-09-28T02:16:28.500Z,3.60
2022-09-28T02:18:55.796Z,4.00
2022-09-28T02:21:42.942Z,3.65
2022-09-28T02:24:27.273Z,3.45
2022-09-28T02:26:57.718Z,3.50
2022-09-28T02:29:24.553Z,3.72
2022-09-28T02:31:52.221Z,3.42
2022-09-28T02:34:19.005Z,3.72
2022-09-28T02:36:46.946Z,3.67
2022-09-28T02:39:19.045Z,3.88
2022-09-28T02:41:50.544Z,3.50
2022-09-28T02:44:17.086Z,3.70
2022-09-28T02:47:05.234Z,3.47
2022-09-28T02:49:49.888Z,3.50
2022-09-28T02:52:28.563Z,3.35
2022-09-28T02:55:10.197Z,3.63
2022-09-28T02:57:59.888Z,4.00
2022-09-28T03:00:28.011Z,4.00
2022-09-28T03:03:15.892Z,3.88
2022-09-28T03:06:03.360Z,3.60
2022-09-28T03:08:37.994Z,3.95
2022-09-28T03:11:10.356Z,4.10
2022-09-28T03:13:37.856Z,3.47
2022-09-28T03:16:22.794Z,7.07
2022-09-28T03:18:49.461Z,7.82
2022-09-28T03:21:16.299Z,8.88
2022-09-28T03:23:43.355Z,4.70
2022-09-28T03:26:13.675Z,4.20
2022-09-28T03:28:40.933Z,4.28
2022-09-28T03:31:07.618Z,4.35
2022-09-28T03:33:34.276Z,3.72
2022-09-28T03:36:01.036Z,4.30
2022-09-28T03:38:27.723Z,4.18
2022-09-28T03:40:55.028Z,3.72
2022-09-28T03:43:22.226Z,4.20
2022-09-28T03:45:53.769Z,4.25
2022-09-28T03:48:32.389Z,4.45
2022-09-28T03:51:02.415Z,4.75
2022-09-28T03:53:29.897Z,5.45
2022-09-28T03:56:01.879Z,5.05
2022-09-28T03:58:28.567Z,5.00
2022-09-28T04:00:55.226Z,4.82
2022-09-28T04:03:21.956Z,5.40
2022-09-28T04:05:50.716Z,4.85
2022-09-28T04:08:17.767Z,4.60
2022-09-28T04:10:44.650Z,5.18
2022-09-28T04:13:11.722Z,5.10
2022-09-28T04:15:38.613Z,4.72
2022-09-28T04:18:13.653Z,5.10
2022-09-28T04:20:41.527Z,5.30
2022-09-28T04:23:08.163Z,4.97
2022-09-28T04:25:34.831Z,5.40
2022-09-28T04:28:19.821Z,5.25
2022-09-28T04:30:47.855Z,5.45
2022-09-28T04:33:14.481Z,5.68
2022-09-28T04:35:41.121Z,5.22
2022-09-28T04:38:07.804Z,5.68
2022-09-28T04:40:34.415Z,5.25
2022-09-28T04:43:01.055Z,5.78
2022-09-28T04:45:28.620Z,5.63
2022-09-28T04:47:55.288Z,5.57
2022-09-28T04:50:22.021Z,5.68
2022-09-28T04:52:48.623Z,6.30
2022-09-28T04:55:16.910Z,6.60
2022-09-28T04:57:43.553Z,7.00
2022-09-28T05:00:12.196Z,7.55
2022-09-28T05:02:39.285Z,8.23
2022-09-28T05:05:06.404Z,10.60
2022-09-28T05:07:33.029Z,9.88
2022-09-28T05:10:01.578Z,9.80
2022-09-28T05:12:28.168Z,9.57
2022-09-28T05:14:54.784Z,8.75
2022-09-28T05:17:21.379Z,8.40
2022-09-28T05:19:47.997Z,7.65
2022-09-28T05:22:15.148Z,7.63
2022-09-28T05:24:41.803Z,7.53
2022-09-28T05:27:08.727Z,7.40
2022-09-28T05:29:35.433Z,7.70
2022-09-28T05:32:02.383Z,8.00
2022-09-28T05:34:29.358Z,7.57
2022-09-28T05:36:56.174Z,8.65
2022-09-28T05:39:22.793Z,8.98
2022-09-28T05:41:49.508Z,10.15
2022-09-28T05:44:16.152Z,9.40
2022-09-28T05:46:42.884Z,9.60
2022-09-28T05:49:09.612Z,9.90
2022-09-28T05:51:36.254Z,10.13
2022-09-28T05:54:05.884Z,11.13
2022-09-28T05:56:33.138Z,10.90
2022-09-28T05:58:59.812Z,11.32
2022-09-28T06:01:26.635Z,10.50
2022-09-28T06:03:53.319Z,9.75
2022-09-28T06:06:19.981Z,9.63
2022-09-28T06:08:48.465Z,8.55
2022-09-28T06:11:15.150Z,8.05
2022-09-28T06:13:41.884Z,7.75
2022-09-28T06:16:08.644Z,8.10
2022-09-28T06:18:35.463Z,7.70
2022-09-28T06:21:02.855Z,7.53
2022-09-28T06:23:29.486Z,7.93
2022-09-28T06:25:56.106Z,7.85
2022-09-28T06:28:22.915Z,8.50
2022-09-28T06:30:49.538Z,7.22
2022-09-28T06:33:16.432Z,7.68
2022-09-28T06:35:43.327Z,7.28
2022-09-28T06:38:10.318Z,7.45
2022-09-28T06:40:37.616Z,6.68
2022-09-28T06:43:10.242Z,5.63
2022-09-28T06:45:38.421Z,5.22
2022-09-28T06:48:05.901Z,5.78
2022-09-28T06:50:37.439Z,5.80
2022-09-28T06:53:06.804Z,5.85
2022-09-28T06:55:34.499Z,5.75
2022-09-28T06:58:06.414Z,4.78
2022-09-28T07:00:35.571Z,5.15
2022-09-28T07:03:03.523Z,4.90
2022-09-28T07:05:30.850Z,4.82
2022-09-28T07:07:57.702Z,5.10
2022-09-28T07:10:28.897Z,5.60
2022-09-28T07:12:56.883Z,5.03
2022-09-28T07:15:24.633Z,5.88
2022-09-28T07:18:02.386Z,5.53
2022-09-28T07:20:31.299Z,5.60
2022-09-28T07:23:12.102Z,6.75
2022-09-28T07:25:47.843Z,5.30
2022-09-28T07:28:14.823Z,4.90
2022-09-28T07:30:42.308Z,4.75
2022-09-28T07:33:12.616Z,4.65
2022-09-28T07:35:39.321Z,5.32
2022-09-28T07:38:07.707Z,5.75
2022-09-28T07:40:54.710Z,5.78
2022-09-28T07:43:22.249Z,5.43
2022-09-28T07:45:50.949Z,3.85
2022-09-28T07:48:18.751Z,3.67
2022-09-28T07:50:54.032Z,2.15
2022-09-28T07:53:22.935Z,2.40
2022-09-28T07:56:02.007Z,1.90
2022-09-28T07:58:29.409Z,2.00
2022-09-28T08:00:56.033Z,2.10
2022-09-28T08:03:22.669Z,2.03
2022-09-28T08:05:49.855Z,2.22
2022-09-28T08:08:16.516Z,2.35
2022-09-28T08:10:47.005Z,1.98
2022-09-28T08:13:15.321Z,1.75
2022-09-28T08:15:42.632Z,2.22
2022-09-28T08:18:10.246Z,2.30
2022-09-28T08:20:55.640Z,2.40
2022-09-28T08:23:23.564Z,2.28
2022-09-28T08:25:54.061Z,1.98
2022-09-28T08:28:22.667Z,2.25
2022-09-28T08:30:50.341Z,1.95
2022-09-28T08:33:18.330Z,2.22
2022-09-28T08:35:45.985Z,2.22
2022-09-28T08:38:13.681Z,2.30
2022-09-28T08:40:58.071Z,1.95
2022-09-28T08:43:46.104Z,2.05
2022-09-28T08:46:15.005Z,2.38
2022-09-28T08:49:25.251Z,2.30
2022-09-28T08:52:17.965Z,2.00
2022-09-28T08:55:12.571Z,1.95
2022-09-28T08:57:51.483Z,1.60
2022-09-28T09:00:38.171Z,1.90
2022-09-28T09:03:12.777Z,1.73
2022-09-28T09:06:17.640Z,2.00
2022-09-28T09:08:51.697Z,1.77
2022-09-28T09:11:31.916Z,1.70
2022-09-28T09:14:27.856Z,1.83
2022-09-28T09:17:13.458Z,1.65
2022-09-28T09:20:01.786Z,1.40
2022-09-28T09:22:40.731Z,1.52
2022-09-28T09:25:21.539Z,1.40
2022-09-28T09:28:16.312Z,1.65
2022-09-28T09:31:13.711Z,1.33
2022-09-28T09:34:18.094Z,1.63
2022-09-28T09:37:02.845Z,1.50
2022-09-28T09:40:08.224Z,1.25
2022-09-28T09:42:40.737Z,1.63
2022-09-28T09:45:14.837Z,1.40
2022-09-28T09:47:47.293Z,1.63
2022-09-28T09:50:32.065Z,1.52
2022-09-28T09:53:42.210Z,2.00
2022-09-28T09:56:21.515Z,1.60
2022-09-28T09:58:59.872Z,1.60
2022-09-28T10:01:37.291Z,1.67
2022-09-28T10:04:08.777Z,1.40
2022-09-28T10:06:37.358Z,1.50
2022-09-28T10:09:13.796Z,1.58
2022-09-28T10:11:45.241Z,1.70
2022-09-28T10:14:25.293Z,1.40
2022-09-28T10:16:53.846Z,1.60
2022-09-28T10:19:27.590Z,1.30
2022-09-28T10:21:54.193Z,1.48
2022-09-28T10:24:31.512Z,1.50
2022-09-28T10:27:05.655Z,1.30
2022-09-28T10:29:43.275Z,1.50
2022-09-28T10:32:44.816Z,1.70
2022-09-28T10:35:24.517Z,1.67
2022-09-28T10:40:44.815Z,1.55
2022-09-28T10:43:33.527Z,1.52
2022-09-28T10:46:21.873Z,2.00
2022-09-28T10:49:12.382Z,1.58
2022-09-28T10:51:45.393Z,1.40
2022-09-28T10:54:18.181Z,1.50
2022-09-28T10:56:46.581Z,1.50
2022-09-28T10:59:31.618Z,1.45
2022-09-28T11:02:02.658Z,1.60
2022-09-28T11:04:41.530Z,1.63
2022-09-28T11:07:24.800Z,1.30
2022-09-28T11:09:53.290Z,1.48
2022-09-28T11:12:26.213Z,1.50
2022-09-28T11:15:01.127Z,1.50
2022-09-28T11:17:32.532Z,1.70
2022-09-28T11:20:01.850Z,1.42
2022-09-28T11:22:34.601Z,1.40
2022-09-28T11:25:16.328Z,1.40
2022-09-28T11:27:52.105Z,1.30
2022-09-28T11:30:34.439Z,1.60
2022-09-28T11:33:05.301Z,1.52
2022-09-28T11:36:06.378Z,2.00
2022-09-28T11:38:39.651Z,1.63
2022-09-28T11:41:12.288Z,1.40
2022-09-28T11:43:58.108Z,1.80
2022-09-28T11:46:43.716Z,1.27
2022-09-28T11:49:38.355Z,1.48
2022-09-28T11:52:31.908Z,1.45
2022-09-28T11:55:09.853Z,1.30
2022-09-28T11:57:40.869Z,1.67
2022-09-28T12:00:15.394Z,1.40
2022-09-28T12:02:49.811Z,1.50
2022-09-28T12:05:20.702Z,1.60
2022-09-28T12:07:54.551Z,1.30
2022-09-28T12:10:45.273Z,1.35
2022-09-28T12:13:16.967Z,1.35
2022-09-28T12:16:20.031Z,1.50
2022-09-28T12:18:52.034Z,1.48
2022-09-28T12:21:24.739Z,1.40
2022-09-28T12:24:05.191Z,1.50
2022-09-28T12:26:40.095Z,1.50
2022-09-28T12:29:22.856Z,1.27
2022-09-28T12:32:26.649Z,1.30
2022-09-28T12:34:53.320Z,1.20
2022-09-28T12:37:44.440Z,1.50
2022-09-28T12:40:29.853Z,1.50
2022-09-28T12:43:33.860Z,1.48
2022-09-28T12:46:38.946Z,1.30
2022-09-28T12:52:48.098Z,1.30
2022-09-28T12:55:27.607Z,1.80
2022-09-28T12:58:36.771Z,1.40
2022-09-28T13:01:31.895Z,1.23
2022-09-28T13:04:02.992Z,2.10
2022-09-28T13:06:32.580Z,2.75
2022-09-28T13:09:01.461Z,4.00
2022-09-28T13:11:54.727Z,5.05
2022-09-28T13:14:27.100Z,4.10
2022-09-28T13:17:12.360Z,11.88
2022-09-28T13:19:55.028Z,5.40
2022-09-28T13:22:44.378Z,3.22
2022-09-28T13:25:17.765Z,1.75
2022-09-28T13:28:05.613Z,2.60
2022-09-28T13:30:35.625Z,2.70
2022-09-28T13:33:05.954Z,2.10
2022-09-28T13:35:33.404Z,5.03
2022-09-28T13:38:18.261Z,5.00
2022-09-28T13:41:06.782Z,5.93
2022-09-28T13:43:36.624Z,2.10
2022-09-28T13:46:19.837Z,2.50
2022-09-28T13:49:05.313Z,1.50
2022-09-28T13:51:40.099Z,4.28
2022-09-28T13:54:37.059Z,4.20
2022-09-28T13:57:29.879Z,3.90
2022-09-28T14:00:02.870Z,2.85
2022-09-28T14:02:36.879Z,2.55
2022-09-28T14:05:47.449Z,2.10
2022-09-28T14:08:28.657Z,1.70
2022-09-28T14:10:57.239Z,2.00
2022-09-28T14:13:44.926Z,1.83
2022-09-28T14:16:17.907Z,1.50
2022-09-28T14:18:50.088Z,1.40
2022-09-28T14:21:31.761Z,1.70
2022-09-28T14:24:39.906Z,1.80
2022-09-28T14:27:40.539Z,1.70
2022-09-28T14:30:10.230Z,1.90
2022-09-28T14:35:18.481Z,2.20
2022-09-28T14:38:07.846Z,2.30
2022-09-28T14:41:10.061Z,3.05
2022-09-28T14:43:45.816Z,3.80
2022-09-28T14:46:14.497Z,3.17
2022-09-28T14:48:49.053Z,2.90
2022-09-28T14:51:25.093Z,2.05
2022-09-28T14:53:52.865Z,2.00
2022-09-28T14:56:19.763Z,2.20
2022-09-28T14:58:52.935Z,2.47
2022-09-28T15:01:22.227Z,2.30
2022-09-28T15:03:52.393Z,1.90
2022-09-28T15:06:22.966Z,2.33
2022-09-28T15:08:49.758Z,2.00
2022-09-28T15:11:21.742Z,3.80
2022-09-28T15:13:53.343Z,3.47
2022-09-28T15:16:24.127Z,3.28
2022-09-28T15:19:31.128Z,2.70
2022-09-28T15:21:57.804Z,2.53
2022-09-28T15:24:24.764Z,2.53
2022-09-28T15:26:52.025Z,3.00
2022-09-28T15:29:19.648Z,2.78
2022-09-28T15:31:47.557Z,2.60
2022-09-28T15:34:51.761Z,3.40
2022-09-28T15:37:23.042Z,3.10
2022-09-28T15:39:51.428Z,2.63
2022-09-28T15:42:18.721Z,2.90
2022-09-28T15:45:22.235Z,3.65
2022-09-28T15:47:48.965Z,4.10
2022-09-28T15:50:28.345Z,3.13
2022-09-28T15:53:01.204Z,2.92
2022-09-28T15:55:34.535Z,3.50
2022-09-28T15:58:08.844Z,3.30
2022-09-28T16:00:35.905Z,3.75
2022-09-28T16:03:29.147Z,3.83
2022-09-28T16:05:58.692Z,5.70
2022-09-28T16:08:42.769Z,5.65
2022-09-28T16:11:20.968Z,5.75
2022-09-28T16:13:56.504Z,5.38
2022-09-28T16:16:35.182Z,4.18
2022-09-28T16:19:02.813Z,5.45
2022-09-28T16:21:42.628Z,5.45
2022-09-28T16:26:47.020Z,6.63
2022-09-28T16:29:32.617Z,6.75
2022-09-28T16:32:24.922Z,6.60
2022-09-28T16:35:11.757Z,8.35
2022-09-28T16:37:42.758Z,8.30
2022-09-28T16:40:12.852Z,8.63
2022-09-28T16:42:43.441Z,9.70
2022-09-28T16:45:19.960Z,8.63
2022-09-28T16:47:47.961Z,8.20
2022-09-28T16:50:15.366Z,6.63
2022-09-28T16:53:00.516Z,7.57
2022-09-28T16:55:40.200Z,9.30
2022-09-28T16:58:08.227Z,22.50
2022-09-28T17:00:35.081Z,25.27
2022-09-28T17:03:02.250Z,24.88
2022-09-28T17:05:29.532Z,25.00
2022-09-28T17:08:04.094Z,27.45
2022-09-28T17:10:50.168Z,40.63
2022-09-28T17:13:35.968Z,33.63
2022-09-28T17:16:08.445Z,21.85
2022-09-28T17:18:39.137Z,18.70
2022-09-28T17:21:10.793Z,22.00
2022-09-28T17:23:37.424Z,22.92
2022-09-28T17:26:06.517Z,13.25
2022-09-28T17:28:36.562Z,14.55
2022-09-28T17:31:07.038Z,16.60
2022-09-28T17:33:33.672Z,13.35
2022-09-28T17:36:04.754Z,12.68
2022-09-28T17:38:31.993Z,13.35
2022-09-28T17:40:58.638Z,10.50
2022-09-28T17:43:25.312Z,9.88
2022-09-28T17:45:52.006Z,9.70
2022-09-28T17:48:24.365Z,7.50
2022-09-28T17:50:51.289Z,7.63
2022-09-28T17:53:18.242Z,8.45
2022-09-28T17:55:44.845Z,8.30
2022-09-28T17:58:19.068Z,9.13
2022-09-28T18:00:47.720Z,9.30
2022-09-28T18:03:17.432Z,7.70
2022-09-28T18:05:45.748Z,8.02
2022-09-28T18:08:15.679Z,7.63
2022-09-28T18:10:42.383Z,7.70
2022-09-28T18:13:09.860Z,7.43
2022-09-28T18:15:36.536Z,7.55
2022-09-28T18:18:03.416Z,6.35
2022-09-28T18:20:30.606Z,6.28
2022-09-28T18:22:57.814Z,7.30
2022-09-28T18:25:24.486Z,6.95
2022-09-28T18:27:54.539Z,8.38
2022-09-28T18:30:21.148Z,10.10
2022-09-28T18:32:47.765Z,10.18
2022-09-28T18:35:14.453Z,9.95
2022-09-28T18:37:41.215Z,9.25
2022-09-28T18:40:09.680Z,9.18
2022-09-28T18:42:36.480Z,10.07
2022-09-28T18:45:06.256Z,9.25
2022-09-28T18:49:59.831Z,8.38
2022-09-28T18:52:27.491Z,8.20
2022-09-28T18:54:54.188Z,6.82
2022-09-28T18:57:21.368Z,7.10
2022-09-28T18:59:48.223Z,7.30
2022-09-28T19:02:14.895Z,8.65
2022-09-28T19:04:41.625Z,12.50
2022-09-28T19:07:08.662Z,13.48
2022-09-28T19:09:35.395Z,9.48
2022-09-28T19:12:02.304Z,8.02
2022-09-28T19:14:28.891Z,7.70
2022-09-28T19:16:55.629Z,9.02
2022-09-28T19:19:22.491Z,9.13
2022-09-28T19:21:49.185Z,7.95
2022-09-28T19:24:18.251Z,7.68
2022-09-28T19:26:46.549Z,8.23
2022-09-28T19:29:13.989Z,7.63
2022-09-28T19:31:43.618Z,7.82
2022-09-28T19:34:13.483Z,6.53
2022-09-28T19:36:41.567Z,6.35
2022-09-28T19:39:08.437Z,6.80
2022-09-28T19:41:44.846Z,7.88
2022-09-28T19:44:36.428Z,7.00
2022-09-28T19:47:09.060Z,7.20
2022-09-28T19:49:40.683Z,7.10
2022-09-28T19:52:16.152Z,6.90
2022-09-28T19:54:54.373Z,6.70
2022-09-28T19:57:21.463Z,7.00
2022-09-28T19:59:52.376Z,6.68
2022-09-28T20:02:19.531Z,5.78
2022-09-28T20:04:46.227Z,6.47
2022-09-28T20:07:12.869Z,6.85
2022-09-28T20:09:39.494Z,7.20
2022-09-28T20:12:06.509Z,7.32
2022-09-28T20:14:38.031Z,7.70
2022-09-28T20:17:06.905Z,10.40
2022-09-28T20:19:33.606Z,10.70
2022-09-28T20:22:02.977Z,9.07
2022-09-28T20:24:31.269Z,8.45
2022-09-28T20:26:58.189Z,8.25
2022-09-28T20:29:24.921Z,8.30
2022-09-28T20:31:52.202Z,7.75
2022-09-28T20:34:19.110Z,8.05
2022-09-28T20:36:45.783Z,8.10
2022-09-28T20:39:12.944Z,7.40
2022-09-28T20:41:40.278Z,7.45
2022-09-28T20:44:07.264Z,8.60
2022-09-28T20:46:37.575Z,8.02
2022-09-28T20:49:05.257Z,7.97
2022-09-28T20:51:32.369Z,8.10
2022-09-28T20:53:59.449Z,8.65
2022-09-28T20:56:28.503Z,7.45
2022-09-28T20:58:55.804Z,7.93
2022-09-28T21:01:29.933Z,8.73
2022-09-28T21:03:59.013Z,8.80
2022-09-28T21:06:28.835Z,9.17
2022-09-28T21:11:24.267Z,9.05
2022-09-28T21:13:59.984Z,9.53
2022-09-28T21:16:28.712Z,9.25
2022-09-28T21:18:55.693Z,9.65
2022-09-28T21:21:23.917Z,9.90
2022-09-28T21:23:54.916Z,8.40
2022-09-28T21:26:26.666Z,8.15
2022-09-28T21:29:04.354Z,8.52
2022-09-28T21:31:36.858Z,7.47
2022-09-28T21:34:04.713Z,7.65
2022-09-28T21:36:31.973Z,6.90
2022-09-28T21:38:58.623Z,7.88
2022-09-28T21:41:25.375Z,8.35
2022-09-28T21:43:52.595Z,9.00
2022-09-28T21:46:19.378Z,8.52
2022-09-28T21:48:46.027Z,8.23
2022-09-28T21:51:15.452Z,7.60
2022-09-28T21:53:42.839Z,8.13
2022-09-28T21:56:12.182Z,8.98
2022-09-28T21:58:40.147Z,8.73
2022-09-28T22:01:13.284Z,9.23
2022-09-28T22:06:17.871Z,9.98
2022-09-28T22:08:45.940Z,9.32
2022-09-28T22:11:17.317Z,9.57
2022-09-28T22:13:46.498Z,10.07
2022-09-28T22:16:15.172Z,10.00
2022-09-28T22:18:42.199Z,10.85
2022-09-28T22:21:12.872Z,10.75
2022-09-28T22:23:40.366Z,11.73
2022-09-28T22:26:18.993Z,12.75
2022-09-28T22:28:51.811Z,10.75
2022-09-28T22:31:20.775Z,11.52
2022-09-28T22:33:47.921Z,12.25
2022-09-28T22:36:16.981Z,13.25
2022-09-28T22:38:44.443Z,14.30
2022-09-28T22:41:11.367Z,16.10
2022-09-28T22:43:38.180Z,17.27
2022-09-28T22:46:05.804Z,17.13
2022-09-28T22:48:32.953Z,14.90
2022-09-28T22:50:59.603Z,13.80
2022-09-28T22:53:26.766Z,13.40
2022-09-28T22:55:53.466Z,11.93
2022-09-28T22:58:20.303Z,12.55
2022-09-28T23:00:48.330Z,12.98
2022-09-28T23:03:14.971Z,13.82
2022-09-28T23:05:41.857Z,12.13
2022-09-28T23:08:08.528Z,11.27
2022-09-28T23:10:35.126Z,9.77
2022-09-28T23:13:01.741Z,8.73
2022-09-28T23:15:29.035Z,9.48
2022-09-28T23:17:55.732Z,8.63
2022-09-28T23:20:23.488Z,8.60
2022-09-28T23:22:50.986Z,8.52
2022-09-28T23:25:19.625Z,9.45
2022-09-28T23:27:51.199Z,8.77
2022-09-28T23:30:20.042Z,8.88
2022-09-28T23:32:46.677Z,9.10
2022-09-28T23:35:14.317Z,8.88
2022-09-28T23:37:40.927Z,9.02
2022-09-28T23:40:07.996Z,8.43
2022-09-28T23:42:35.508Z,8.93
2022-09-28T23:45:02.114Z,8.73
2022-09-28T23:47:28.694Z,8.38
2022-09-28T23:49:55.303Z,8.93
2022-09-28T23:52:21.913Z,9.20
2022-09-28T23:54:48.604Z,9.00
2022-09-28T23:57:15.439Z,10.27
2022-09-28T23:59:41.971Z,9.57
